createdAt,value
2023-02-03T00:00:35.928Z,12.30
2023-02-03T00:03:38.084Z,13.87
2023-02-03T00:06:40.348Z,11.90
2023-02-03T00:09:42.398Z,12.73
2023-02-03T00:12:44.136Z,13.47
2023-02-03T00:15:46.035Z,12.93
2023-02-03T00:18:47.762Z,15.80
2023-02-03T00:21:49.544Z,13.10
2023-02-03T00:24:51.251Z,13.53
2023-02-03T00:27:53.041Z,11.63
2023-02-03T00:30:54.809Z,13.10
2023-02-03T00:33:57.923Z,12.57
2023-02-03T00:36:59.750Z,11.33
2023-02-03T00:40:01.553Z,12.03
2023-02-03T00:43:03.425Z,12.43
2023-02-03T00:46:05.449Z,12.40
2023-02-03T00:49:07.702Z,12.80
2023-02-03T00:52:09.501Z,12.00
2023-02-03T00:55:11.282Z,12.83
2023-02-03T00:58:13.078Z,13.33
2023-02-03T01:01:15.070Z,12.93
2023-02-03T01:04:16.981Z,11.33
2023-02-03T01:07:18.832Z,14.23
2023-02-03T01:10:20.701Z,14.13
2023-02-03T01:13:22.440Z,12.60
2023-02-03T01:16:25.307Z,13.73
2023-02-03T01:19:27.787Z,13.13
2023-02-03T01:22:30.712Z,13.53
2023-02-03T01:25:34.538Z,12.87
2023-02-03T01:28:36.494Z,13.13
2023-02-03T01:31:40.942Z,13.93
2023-02-03T01:34:42.786Z,14.07
2023-02-03T01:37:44.808Z,15.17
2023-02-03T01:40:46.603Z,14.47
2023-02-03T01:43:51.011Z,12.27
2023-02-03T01:46:53.074Z,15.83
2023-02-03T01:50:03.774Z,12.37
2023-02-03T01:53:10.938Z,14.73
2023-02-03T01:56:12.722Z,17.97
2023-02-03T01:59:19.706Z,14.77
2023-02-03T02:02:22.090Z,19.17
2023-02-03T02:05:45.000Z,22.20
2023-02-03T02:08:50.798Z,19.73
2023-02-03T02:11:52.550Z,22.57
2023-02-03T02:14:55.240Z,21.30
2023-02-03T02:18:22.115Z,20.70
2023-02-03T02:21:42.100Z,19.50
2023-02-03T02:25:02.479Z,19.77
2023-02-03T02:28:39.385Z,20.20
2023-02-03T02:31:50.647Z,21.90
2023-02-03T02:35:08.574Z,19.63
2023-02-03T02:38:23.638Z,17.43
2023-02-03T02:41:48.479Z,16.67
2023-02-03T02:45:26.555Z,16.40
2023-02-03T02:48:49.719Z,15.13
2023-02-03T02:51:53.819Z,17.83
2023-02-03T02:55:03.201Z,21.23
2023-02-03T02:58:09.215Z,16.70
2023-02-03T03:01:11.689Z,16.83
2023-02-03T03:04:17.366Z,16.70
2023-02-03T03:07:25.114Z,13.97
2023-02-03T03:10:30.790Z,14.97
2023-02-03T03:13:37.970Z,14.60
2023-02-03T03:16:46.748Z,15.43
2023-02-03T03:19:54.824Z,14.63
2023-02-03T03:23:20.319Z,14.17
2023-02-03T03:26:30.577Z,14.47
2023-02-03T03:30:09.319Z,12.13
2023-02-03T03:33:11.275Z,8.97
2023-02-03T03:36:23.158Z,10.47
2023-02-03T03:39:43.165Z,11.53
2023-02-03T03:43:03.191Z,10.77
2023-02-03T03:46:10.735Z,11.93
2023-02-03T03:49:14.142Z,11.87
2023-02-03T03:52:22.090Z,15.30
2023-02-03T03:55:28.972Z,10.17
2023-02-03T03:58:32.258Z,12.33
2023-02-03T04:01:34.349Z,11.30
2023-02-03T04:04:39.127Z,15.07
2023-02-03T04:07:46.385Z,12.53
2023-02-03T04:10:48.306Z,9.90
2023-02-03T04:13:50.575Z,14.33
2023-02-03T04:16:53.653Z,10.10
2023-02-03T04:19:55.481Z,13.70
2023-02-03T04:22:58.253Z,12.10
2023-02-03T04:26:02.000Z,13.47
2023-02-03T04:29:04.228Z,13.23
2023-02-03T04:32:06.132Z,11.83
2023-02-03T04:35:08.654Z,13.17
2023-02-03T04:38:10.557Z,8.37
2023-02-03T04:41:12.314Z,11.53
2023-02-03T04:44:14.092Z,11.80
2023-02-03T04:47:17.460Z,12.33
2023-02-03T04:50:19.568Z,12.43
2023-02-03T04:53:21.457Z,10.30
2023-02-03T04:56:23.677Z,9.40
2023-02-03T04:59:25.988Z,12.17
2023-02-03T05:02:27.780Z,8.87
2023-02-03T05:05:29.747Z,6.77
2023-02-03T05:08:31.593Z,9.60
2023-02-03T05:11:33.863Z,9.07
2023-02-03T05:14:35.596Z,7.97
2023-02-03T05:17:40.004Z,7.07
2023-02-03T05:20:41.849Z,7.30
2023-02-03T05:23:43.759Z,7.50
2023-02-03T05:26:46.130Z,8.63
2023-02-03T05:29:47.872Z,6.03
2023-02-03T05:32:50.249Z,6.87
2023-02-03T05:35:52.095Z,6.40
2023-02-03T05:38:54.147Z,6.87
2023-02-03T05:41:58.292Z,5.23
2023-02-03T05:45:00.281Z,9.80
2023-02-03T05:48:04.794Z,5.63
2023-02-03T05:51:06.531Z,7.90
2023-02-03T05:54:09.060Z,6.20
2023-02-03T05:57:10.797Z,5.57
2023-02-03T06:00:13.345Z,7.83
2023-02-03T06:03:15.572Z,5.27
2023-02-03T06:06:17.828Z,4.40
2023-02-03T06:09:19.596Z,5.70
2023-02-03T06:12:22.079Z,7.13
2023-02-03T06:15:23.802Z,4.57
2023-02-03T06:18:25.684Z,5.67
2023-02-03T06:21:28.176Z,5.57
2023-02-03T06:24:29.893Z,5.87
2023-02-03T06:27:31.775Z,9.70
2023-02-03T06:30:33.554Z,5.60
2023-02-03T06:33:35.578Z,6.13
2023-02-03T06:36:37.314Z,5.53
2023-02-03T06:39:39.111Z,7.00
2023-02-03T06:42:40.845Z,5.30
2023-02-03T06:45:46.466Z,5.20
2023-02-03T06:48:48.231Z,6.83
2023-02-03T06:51:49.993Z,6.43
2023-02-03T06:54:51.750Z,7.40
2023-02-03T06:57:53.624Z,5.57
2023-02-03T07:00:58.559Z,6.67
2023-02-03T07:04:00.294Z,6.00
2023-02-03T07:07:02.071Z,5.87
2023-02-03T07:10:04.119Z,5.03
2023-02-03T07:13:06.987Z,5.50
2023-02-03T07:16:08.795Z,6.87
2023-02-03T07:19:10.661Z,4.57
2023-02-03T07:22:12.430Z,4.67
2023-02-03T07:25:14.187Z,8.73
2023-02-03T07:28:16.008Z,5.93
2023-02-03T07:31:18.195Z,5.07
2023-02-03T07:34:20.098Z,6.70
2023-02-03T07:37:21.843Z,6.17
2023-02-03T07:40:23.741Z,7.87
2023-02-03T07:43:25.645Z,6.47
2023-02-03T07:46:27.720Z,6.70
2023-02-03T07:49:29.750Z,6.83
2023-02-03T07:52:31.732Z,7.17
2023-02-03T07:55:34.414Z,5.23
2023-02-03T07:58:36.222Z,6.50
2023-02-03T08:01:38.126Z,5.83
2023-02-03T08:04:39.943Z,6.30
2023-02-03T08:07:42.591Z,4.67
2023-02-03T08:10:44.404Z,5.20
2023-02-03T08:13:46.146Z,6.03
2023-02-03T08:16:47.924Z,6.50
2023-02-03T08:19:49.780Z,6.40
2023-02-03T08:22:52.607Z,9.27
2023-02-03T08:25:54.656Z,6.00
2023-02-03T08:28:56.825Z,8.20
2023-02-03T08:31:58.992Z,5.77
2023-02-03T08:35:00.861Z,5.77
2023-02-03T08:38:02.687Z,6.47
2023-02-03T08:41:13.895Z,7.07
2023-02-03T08:44:15.764Z,8.07
2023-02-03T08:47:17.544Z,6.17
2023-02-03T08:50:19.903Z,5.10
2023-02-03T08:53:21.992Z,7.93
2023-02-03T08:56:26.486Z,4.70
2023-02-03T08:59:29.195Z,6.63
2023-02-03T09:02:31.040Z,5.43
2023-02-03T09:05:33.233Z,6.73
2023-02-03T09:08:35.143Z,5.90
2023-02-03T09:11:36.985Z,8.03
2023-02-03T09:14:39.157Z,5.17
2023-02-03T09:17:41.119Z,6.80
2023-02-03T09:20:43.167Z,7.30
2023-02-03T09:23:45.749Z,8.27
2023-02-03T09:26:47.555Z,7.97
2023-02-03T09:29:49.385Z,6.07
2023-02-03T09:32:54.558Z,3.97
2023-02-03T09:35:57.208Z,5.93
2023-02-03T09:38:58.979Z,9.37
2023-02-03T09:42:12.769Z,5.97
2023-02-03T09:45:27.297Z,6.67
2023-02-03T09:48:38.807Z,7.70
2023-02-03T09:51:52.163Z,10.53
2023-02-03T09:55:11.563Z,12.83
2023-02-03T09:58:20.994Z,7.97
2023-02-03T10:01:30.340Z,7.07
2023-02-03T10:04:40.150Z,7.80
2023-02-03T10:08:00.132Z,10.53
2023-02-03T10:11:32.035Z,8.03
2023-02-03T10:15:11.729Z,5.97
2023-02-03T10:18:21.040Z,5.00
2023-02-03T10:21:33.806Z,5.67
2023-02-03T10:25:15.903Z,6.50
2023-02-03T10:28:20.639Z,7.93
2023-02-03T10:31:27.865Z,7.50
2023-02-03T10:34:29.849Z,4.73
2023-02-03T10:37:38.984Z,6.10
2023-02-03T10:40:40.853Z,5.40
2023-02-03T10:43:48.795Z,5.50
2023-02-03T10:46:50.511Z,4.03
2023-02-03T10:49:54.784Z,4.93
2023-02-03T10:53:19.680Z,6.23
2023-02-03T10:56:25.533Z,4.60
2023-02-03T10:59:33.819Z,5.37
2023-02-03T11:02:36.061Z,4.43
2023-02-03T11:05:37.903Z,5.67
2023-02-03T11:08:42.724Z,4.07
2023-02-03T11:11:44.788Z,6.67
2023-02-03T11:14:52.285Z,7.97
2023-02-03T11:17:54.519Z,5.07
2023-02-03T11:20:58.703Z,5.37
2023-02-03T11:24:09.297Z,4.53
2023-02-03T11:27:16.326Z,3.87
2023-02-03T11:30:26.573Z,8.77
2023-02-03T11:33:29.953Z,5.47
2023-02-03T11:36:35.278Z,4.70
2023-02-03T11:39:39.169Z,4.60
2023-02-03T11:42:46.681Z,6.63
2023-02-03T11:45:53.301Z,4.23
2023-02-03T11:49:09.297Z,2.70
2023-02-03T11:52:37.190Z,6.23
2023-02-03T11:55:39.035Z,6.93
2023-02-03T11:59:06.819Z,4.13
2023-02-03T12:02:39.362Z,4.20
2023-02-03T12:06:13.262Z,3.40
2023-02-03T12:09:33.963Z,5.20
2023-02-03T12:12:35.725Z,3.90
2023-02-03T12:15:50.348Z,3.43
2023-02-03T12:19:12.390Z,4.07
2023-02-03T12:22:45.199Z,3.77
2023-02-03T12:26:20.407Z,7.27
2023-02-03T12:29:26.035Z,3.37
2023-02-03T12:32:46.709Z,3.47
2023-02-03T12:35:58.140Z,5.00
2023-02-03T12:39:09.496Z,2.20
2023-02-03T12:42:41.430Z,2.07
2023-02-03T12:45:51.173Z,2.27
2023-02-03T12:49:04.670Z,2.43
2023-02-03T12:52:19.599Z,2.57
2023-02-03T12:55:46.325Z,1.93
2023-02-03T12:58:55.681Z,3.33
2023-02-03T13:02:14.020Z,2.70
2023-02-03T13:05:34.166Z,3.57
2023-02-03T13:08:58.115Z,1.70
2023-02-03T13:12:11.882Z,4.07
2023-02-03T13:15:22.851Z,2.43
2023-02-03T13:18:37.252Z,3.17
2023-02-03T13:21:39.066Z,1.83
2023-02-03T13:24:48.900Z,3.13
2023-02-03T13:28:11.284Z,1.90
2023-02-03T13:31:41.388Z,3.57
2023-02-03T13:35:09.228Z,1.43
2023-02-03T13:38:31.029Z,2.07
2023-02-03T13:41:51.665Z,2.90
2023-02-03T13:45:25.185Z,2.87
2023-02-03T13:48:32.466Z,5.90
2023-02-03T13:51:37.906Z,2.63
2023-02-03T13:54:44.029Z,1.23
2023-02-03T13:57:51.791Z,1.30
2023-02-03T14:00:53.503Z,1.23
2023-02-03T14:03:56.219Z,2.93
2023-02-03T14:07:00.710Z,1.20
2023-02-03T14:10:08.320Z,1.10
2023-02-03T14:13:21.367Z,3.10
2023-02-03T14:16:25.521Z,2.03
2023-02-03T14:19:30.018Z,2.40
2023-02-03T14:22:32.160Z,0.90
2023-02-03T14:25:42.258Z,3.07
2023-02-03T14:28:46.486Z,2.27
2023-02-03T14:31:58.532Z,1.67
2023-02-03T14:35:00.337Z,1.17
2023-02-03T14:38:08.838Z,5.20
2023-02-03T14:41:13.961Z,1.20
2023-02-03T14:44:28.762Z,1.30
2023-02-03T14:48:07.658Z,2.40
2023-02-03T14:51:33.954Z,2.77
2023-02-03T14:54:38.675Z,3.30
2023-02-03T14:58:20.529Z,1.83
2023-02-03T15:01:37.554Z,1.07
2023-02-03T15:04:39.443Z,2.90
2023-02-03T15:07:50.066Z,1.07
2023-02-03T15:10:53.112Z,1.17
2023-02-03T15:13:56.972Z,2.07
2023-02-03T15:17:02.860Z,1.90
2023-02-03T15:20:27.480Z,1.43
2023-02-03T15:23:47.979Z,2.30
2023-02-03T15:26:55.896Z,3.70
2023-02-03T15:30:02.050Z,2.47
2023-02-03T15:33:11.663Z,1.93
2023-02-03T15:36:21.734Z,2.30
2023-02-03T15:39:39.224Z,5.27
2023-02-03T15:43:04.324Z,3.63
2023-02-03T15:46:52.024Z,3.70
2023-02-03T15:50:03.105Z,4.47
2023-02-03T15:53:34.493Z,6.63
2023-02-03T15:56:44.112Z,3.80
2023-02-03T15:59:54.073Z,5.67
2023-02-03T16:02:58.348Z,6.23
2023-02-03T16:06:10.450Z,5.03
2023-02-03T16:09:33.892Z,3.93
2023-02-03T16:12:36.126Z,5.43
2023-02-03T16:15:37.971Z,6.80
2023-02-03T16:18:40.637Z,5.13
2023-02-03T16:21:48.338Z,10.27
2023-02-03T16:24:50.176Z,8.53
2023-02-03T16:28:21.723Z,5.20
2023-02-03T16:31:42.504Z,4.20
2023-02-03T16:35:03.485Z,4.77
2023-02-03T16:38:31.291Z,5.43
2023-02-03T16:41:51.947Z,3.80
2023-02-03T16:45:12.542Z,5.63
2023-02-03T16:48:32.964Z,3.33
2023-02-03T16:51:43.680Z,4.27
2023-02-03T16:54:45.929Z,6.43
2023-02-03T16:57:47.709Z,9.17
2023-02-03T17:00:52.030Z,7.13
2023-02-03T17:03:53.854Z,16.17
2023-02-03T17:06:55.997Z,7.17
2023-02-03T17:09:57.750Z,13.20
2023-02-03T17:12:59.503Z,11.57
2023-02-03T17:16:01.295Z,13.97
2023-02-03T17:19:03.170Z,14.93
2023-02-03T17:22:05.102Z,9.83
2023-02-03T17:25:07.853Z,7.97
2023-02-03T17:28:11.262Z,14.83
2023-02-03T17:31:16.334Z,15.80
2023-02-03T17:34:18.227Z,14.17
2023-02-03T17:37:20.276Z,17.87
2023-02-03T17:53:41.645Z,16.27
2023-02-03T17:56:47.421Z,14.87
2023-02-03T17:59:49.349Z,19.07
2023-02-03T18:02:52.356Z,13.27
2023-02-03T18:05:54.096Z,10.77
2023-02-03T18:09:01.247Z,16.80
2023-02-03T18:12:03.067Z,12.33
2023-02-03T18:15:05.010Z,15.60
2023-02-03T18:18:08.032Z,14.93
2023-02-03T18:21:11.514Z,14.73
2023-02-03T18:24:14.061Z,12.80
2023-02-03T18:27:17.381Z,17.90
2023-02-03T18:30:21.635Z,14.90
2023-02-03T18:33:23.477Z,15.63
2023-02-03T18:36:25.187Z,15.83
2023-02-03T18:39:27.090Z,16.43
2023-02-03T18:42:29.091Z,10.40
2023-02-03T18:45:31.006Z,14.33
2023-02-03T18:48:32.803Z,14.43
2023-02-03T18:51:34.919Z,15.10
2023-02-03T18:54:36.792Z,14.50
2023-02-03T18:57:39.229Z,15.23
2023-02-03T19:00:41.009Z,14.77
2023-02-03T19:03:42.848Z,15.07
2023-02-03T19:06:45.809Z,15.03
2023-02-03T19:09:47.534Z,16.40
2023-02-03T19:12:49.381Z,15.13
2023-02-03T19:15:51.910Z,19.23
2023-02-03T19:18:53.711Z,13.47
2023-02-03T19:21:55.649Z,16.20
2023-02-03T19:24:57.449Z,9.90
2023-02-03T19:27:59.205Z,20.87
2023-02-03T19:31:10.580Z,14.73
2023-02-03T19:34:17.360Z,16.53
2023-02-03T19:37:19.108Z,10.80
2023-02-03T19:40:21.179Z,13.90
2023-02-03T19:43:24.603Z,10.10
2023-02-03T19:46:27.446Z,15.80
2023-02-03T19:49:29.643Z,12.87
2023-02-03T19:52:31.408Z,11.27
2023-02-03T19:55:33.103Z,10.63
2023-02-03T19:58:34.958Z,18.10
2023-02-03T20:01:37.136Z,12.60
2023-02-03T20:04:38.963Z,16.90
2023-02-03T20:07:40.754Z,18.37
2023-02-03T20:10:46.478Z,12.57
2023-02-03T20:13:48.955Z,15.73
2023-02-03T20:16:51.143Z,11.47
2023-02-03T20:19:52.885Z,14.43
2023-02-03T20:22:54.575Z,10.50
2023-02-03T20:25:56.544Z,16.60
2023-02-03T20:28:58.328Z,11.33
2023-02-03T20:32:00.633Z,13.97
2023-02-03T20:35:04.191Z,12.93
2023-02-03T20:38:05.967Z,13.83
2023-02-03T20:41:12.533Z,14.40
2023-02-03T20:44:14.331Z,15.87
2023-02-03T20:47:22.262Z,12.67
2023-02-03T20:50:34.443Z,16.60
2023-02-03T20:53:44.441Z,16.93
2023-02-03T20:56:46.430Z,17.77
2023-02-03T20:59:48.338Z,14.27
2023-02-03T21:03:08.912Z,11.50
2023-02-03T21:06:18.589Z,18.30
2023-02-03T21:09:22.986Z,15.53
2023-02-03T21:12:25.180Z,13.37
2023-02-03T21:15:29.496Z,15.40
2023-02-03T21:18:39.159Z,13.00
2023-02-03T21:21:42.470Z,21.07
2023-02-03T21:24:51.019Z,14.80
2023-02-03T21:27:53.046Z,14.37
2023-02-03T21:30:54.911Z,15.03
2023-02-03T21:33:59.194Z,15.33
2023-02-03T21:37:22.799Z,14.73
2023-02-03T21:40:33.699Z,14.83
2023-02-03T21:43:36.323Z,11.60
2023-02-03T21:46:38.015Z,13.53
2023-02-03T21:49:39.711Z,13.17
2023-02-03T21:52:41.589Z,11.47
2023-02-03T21:55:43.581Z,11.27
2023-02-03T21:58:50.752Z,14.40
2023-02-03T22:01:57.683Z,16.90
2023-02-03T22:04:59.401Z,12.87
2023-02-03T22:08:17.334Z,14.37
2023-02-03T22:11:20.538Z,22.23
2023-02-03T22:14:22.363Z,15.00
2023-02-03T22:17:24.086Z,10.13
2023-02-03T22:20:25.843Z,12.63
2023-02-03T22:23:27.669Z,14.43
2023-02-03T22:26:29.679Z,12.80
2023-02-03T22:29:32.376Z,15.93
2023-02-03T22:32:34.204Z,14.47
2023-02-03T22:35:36.296Z,13.07
2023-02-03T22:38:39.581Z,16.83
2023-02-03T22:41:41.342Z,11.47
2023-02-03T22:44:43.059Z,13.20
2023-02-03T22:47:45.393Z,11.90
2023-02-03T22:50:47.283Z,15.63
2023-02-03T22:53:49.137Z,17.97
2023-02-03T22:56:50.868Z,12.20
2023-02-03T22:59:52.583Z,14.87
2023-02-03T23:02:54.873Z,11.73
2023-02-03T23:05:56.917Z,15.57
2023-02-03T23:08:58.771Z,17.07
2023-02-03T23:12:00.883Z,18.13
2023-02-03T23:15:02.695Z,12.97
2023-02-03T23:18:04.515Z,18.50
2023-02-03T23:21:06.265Z,18.70
2023-02-03T23:24:08.225Z,16.90
2023-02-03T23:27:10.054Z,14.50
2023-02-03T23:30:13.073Z,18.20
2023-02-03T23:33:14.851Z,20.73
2023-02-03T23:36:16.569Z,14.53
2023-02-03T23:39:18.335Z,16.10
2023-02-03T23:42:20.180Z,20.20
2023-02-03T23:45:21.894Z,16.80
2023-02-03T23:48:23.610Z,16.83
2023-02-03T23:51:25.841Z,16.33
2023-02-03T23:54:27.534Z,14.60
2023-02-03T23:57:29.282Z,12.63
